sensor_id;sensor_type;location;lat;lon;timestamp;P1;durP1;ratioP1;P2;durP2;ratioP2
46463;SDS011;32161;48.148;-1.554;2023-05-31T00:02:18;17.58;;;7.25;;
46463;SDS011;32161;48.148;-1.554;2023-05-31T00:04:47;17.38;;;6.80;;
46463;SDS011;32161;48.148;-1.554;2023-05-31T00:07:14;10.88;;;5.60;;
46463;SDS011;32161;48.148;-1.554;2023-05-31T00:09:42;12.88;;;6.38;;
46463;SDS011;32161;48.148;-1.554;2023-05-31T00:12:09;14.60;;;6.63;;
46463;SDS011;32161;48.148;-1.554;2023-05-31T00:14:37;15.40;;;6.25;;
46463;SDS011;32161;48.148;-1.554;2023-05-31T00:17:05;11.93;;;7.03;;
46463;SDS011;32161;48.148;-1.554;2023-05-31T00:19:33;12.40;;;5.75;;
46463;SDS011;32161;48.148;-1.554;2023-05-31T00:22:01;18.25;;;7.00;;
46463;SDS011;32161;48.148;-1.554;2023-05-31T00:24:29;12.98;;;6.53;;
46463;SDS011;32161;48.148;-1.554;2023-05-31T00:26:57;18.50;;;7.20;;
46463;SDS011;32161;48.148;-1.554;2023-05-31T00:29:25;10.32;;;5.53;;
46463;SDS011;32161;48.148;-1.554;2023-05-31T00:31:54;14.35;;;6.55;;
46463;SDS011;32161;48.148;-1.554;2023-05-31T00:34:22;15.65;;;6.78;;
46463;SDS011;32161;48.148;-1.554;2023-05-31T00:36:49;12.40;;;6.50;;
46463;SDS011;32161;48.148;-1.554;2023-05-31T00:39:18;13.07;;;6.45;;
46463;SDS011;32161;48.148;-1.554;2023-05-31T00:41:46;11.85;;;6.35;;
46463;SDS011;32161;48.148;-1.554;2023-05-31T00:44:13;13.25;;;6.90;;
46463;SDS011;32161;48.148;-1.554;2023-05-31T00:46:41;13.93;;;7.00;;
46463;SDS011;32161;48.148;-1.554;2023-05-31T00:49:09;13.57;;;6.32;;
46463;SDS011;32161;48.148;-1.554;2023-05-31T00:51:37;15.30;;;6.13;;
46463;SDS011;32161;48.148;-1.554;2023-05-31T00:54:05;11.38;;;6.90;;
46463;SDS011;32161;48.148;-1.554;2023-05-31T00:56:34;14.88;;;7.15;;
46463;SDS011;32161;48.148;-1.554;2023-05-31T00:59:02;14.38;;;7.13;;
46463;SDS011;32161;48.148;-1.554;2023-05-31T01:01:30;13.15;;;6.22;;
46463;SDS011;32161;48.148;-1.554;2023-05-31T01:03:58;17.75;;;6.30;;
46463;SDS011;32161;48.148;-1.554;2023-05-31T01:06:27;15.75;;;6.72;;
46463;SDS011;32161;48.148;-1.554;2023-05-31T01:08:57;15.68;;;6.95;;
46463;SDS011;32161;48.148;-1.554;2023-05-31T01:11:32;10.43;;;6.07;;
46463;SDS011;32161;48.148;-1.554;2023-05-31T01:14:21;11.48;;;6.20;;
46463;SDS011;32161;48.148;-1.554;2023-05-31T01:17:02;13.45;;;6.10;;
46463;SDS011;32161;48.148;-1.554;2023-05-31T01:19:42;18.48;;;5.97;;
46463;SDS011;32161;48.148;-1.554;2023-05-31T01:22:19;14.38;;;6.65;;
46463;SDS011;32161;48.148;-1.554;2023-05-31T01:25:13;9.93;;;6.03;;
46463;SDS011;32161;48.148;-1.554;2023-05-31T01:27:54;12.25;;;6.43;;
46463;SDS011;32161;48.148;-1.554;2023-05-31T01:30:23;10.65;;;6.38;;
46463;SDS011;32161;48.148;-1.554;2023-05-31T01:32:53;9.55;;;6.72;;
46463;SDS011;32161;48.148;-1.554;2023-05-31T01:37:52;14.88;;;7.32;;
46463;SDS011;32161;48.148;-1.554;2023-05-31T01:40:20;14.05;;;7.13;;
46463;SDS011;32161;48.148;-1.554;2023-05-31T01:42:47;11.52;;;6.78;;
46463;SDS011;32161;48.148;-1.554;2023-05-31T01:45:18;11.75;;;6.90;;
46463;SDS011;32161;48.148;-1.554;2023-05-31T01:47:47;13.05;;;7.05;;
46463;SDS011;32161;48.148;-1.554;2023-05-31T01:50:20;15.73;;;7.35;;
46463;SDS011;32161;48.148;-1.554;2023-05-31T01:52:48;14.68;;;7.07;;
46463;SDS011;32161;48.148;-1.554;2023-05-31T01:55:15;13.20;;;7.78;;
46463;SDS011;32161;48.148;-1.554;2023-05-31T01:57:43;19.98;;;8.70;;
46463;SDS011;32161;48.148;-1.554;2023-05-31T02:00:13;14.00;;;8.27;;
46463;SDS011;32161;48.148;-1.554;2023-05-31T02:02:43;11.23;;;7.20;;
46463;SDS011;32161;48.148;-1.554;2023-05-31T02:05:11;14.75;;;7.30;;
46463;SDS011;32161;48.148;-1.554;2023-05-31T02:07:40;16.67;;;7.70;;
46463;SDS011;32161;48.148;-1.554;2023-05-31T02:10:09;13.48;;;8.07;;
46463;SDS011;32161;48.148;-1.554;2023-05-31T02:12:38;16.48;;;8.35;;
46463;SDS011;32161;48.148;-1.554;2023-05-31T02:15:06;13.65;;;7.63;;
46463;SDS011;32161;48.148;-1.554;2023-05-31T02:17:36;17.83;;;8.38;;
46463;SDS011;32161;48.148;-1.554;2023-05-31T02:20:08;12.60;;;8.55;;
46463;SDS011;32161;48.148;-1.554;2023-05-31T02:22:38;10.80;;;8.35;;
46463;SDS011;32161;48.148;-1.554;2023-05-31T02:25:07;13.32;;;8.90;;
46463;SDS011;32161;48.148;-1.554;2023-05-31T02:27:36;18.38;;;8.43;;
46463;SDS011;32161;48.148;-1.554;2023-05-31T02:30:04;15.95;;;8.90;;
46463;SDS011;32161;48.148;-1.554;2023-05-31T02:32:33;13.00;;;8.60;;
46463;SDS011;32161;48.148;-1.554;2023-05-31T02:35:03;13.70;;;8.98;;
46463;SDS011;32161;48.148;-1.554;2023-05-31T02:37:33;15.10;;;8.88;;
46463;SDS011;32161;48.148;-1.554;2023-05-31T02:40:02;13.45;;;9.05;;
46463;SDS011;32161;48.148;-1.554;2023-05-31T02:42:33;14.88;;;9.68;;
46463;SDS011;32161;48.148;-1.554;2023-05-31T02:45:01;12.88;;;9.40;;
46463;SDS011;32161;48.148;-1.554;2023-05-31T02:47:30;16.38;;;9.50;;
46463;SDS011;32161;48.148;-1.554;2023-05-31T02:49:58;17.20;;;9.65;;
46463;SDS011;32161;48.148;-1.554;2023-05-31T02:52:26;14.85;;;9.43;;
46463;SDS011;32161;48.148;-1.554;2023-05-31T02:54:55;16.10;;;9.50;;
46463;SDS011;32161;48.148;-1.554;2023-05-31T02:57:23;19.48;;;9.80;;
46463;SDS011;32161;48.148;-1.554;2023-05-31T02:59:53;15.85;;;10.00;;
46463;SDS011;32161;48.148;-1.554;2023-05-31T03:02:24;20.40;;;10.20;;
46463;SDS011;32161;48.148;-1.554;2023-05-31T03:04:51;16.65;;;10.90;;
46463;SDS011;32161;48.148;-1.554;2023-05-31T03:07:19;15.95;;;10.00;;
46463;SDS011;32161;48.148;-1.554;2023-05-31T03:09:46;17.08;;;9.73;;
46463;SDS011;32161;48.148;-1.554;2023-05-31T03:12:15;19.70;;;11.45;;
46463;SDS011;32161;48.148;-1.554;2023-05-31T03:14:43;15.30;;;9.80;;
46463;SDS011;32161;48.148;-1.554;2023-05-31T03:17:10;17.02;;;11.20;;
46463;SDS011;32161;48.148;-1.554;2023-05-31T03:19:37;18.13;;;11.40;;
46463;SDS011;32161;48.148;-1.554;2023-05-31T03:22:05;20.15;;;10.75;;
46463;SDS011;32161;48.148;-1.554;2023-05-31T03:24:33;22.17;;;10.85;;
46463;SDS011;32161;48.148;-1.554;2023-05-31T03:27:01;19.33;;;10.75;;
46463;SDS011;32161;48.148;-1.554;2023-05-31T03:29:30;15.73;;;10.35;;
46463;SDS011;32161;48.148;-1.554;2023-05-31T03:31:58;14.45;;;11.00;;
46463;SDS011;32161;48.148;-1.554;2023-05-31T03:34:25;21.58;;;11.25;;
46463;SDS011;32161;48.148;-1.554;2023-05-31T03:36:53;16.13;;;11.07;;
46463;SDS011;32161;48.148;-1.554;2023-05-31T03:39:20;17.30;;;11.13;;
46463;SDS011;32161;48.148;-1.554;2023-05-31T03:41:48;19.98;;;11.95;;
46463;SDS011;32161;48.148;-1.554;2023-05-31T03:44:15;18.38;;;10.82;;
46463;SDS011;32161;48.148;-1.554;2023-05-31T03:46:44;20.27;;;11.52;;
46463;SDS011;32161;48.148;-1.554;2023-05-31T03:49:12;20.67;;;11.55;;
46463;SDS011;32161;48.148;-1.554;2023-05-31T03:51:39;21.55;;;11.70;;
46463;SDS011;32161;48.148;-1.554;2023-05-31T03:54:07;14.10;;;11.35;;
46463;SDS011;32161;48.148;-1.554;2023-05-31T03:56:35;15.07;;;11.32;;
46463;SDS011;32161;48.148;-1.554;2023-05-31T03:59:02;17.13;;;11.63;;
46463;SDS011;32161;48.148;-1.554;2023-05-31T04:01:31;20.92;;;11.60;;
46463;SDS011;32161;48.148;-1.554;2023-05-31T04:04:00;15.90;;;11.32;;
46463;SDS011;32161;48.148;-1.554;2023-05-31T04:06:27;20.85;;;11.95;;
46463;SDS011;32161;48.148;-1.554;2023-05-31T04:08:55;22.80;;;12.65;;
46463;SDS011;32161;48.148;-1.554;2023-05-31T04:11:22;20.20;;;12.50;;
46463;SDS011;32161;48.148;-1.554;2023-05-31T04:13:51;22.10;;;12.00;;
46463;SDS011;32161;48.148;-1.554;2023-05-31T04:16:18;22.67;;;13.55;;
46463;SDS011;32161;48.148;-1.554;2023-05-31T04:18:46;19.45;;;11.90;;
46463;SDS011;32161;48.148;-1.554;2023-05-31T04:21:15;16.20;;;12.02;;
46463;SDS011;32161;48.148;-1.554;2023-05-31T04:23:42;15.57;;;12.07;;
46463;SDS011;32161;48.148;-1.554;2023-05-31T04:26:10;21.50;;;12.13;;
46463;SDS011;32161;48.148;-1.554;2023-05-31T04:31:09;21.95;;;12.65;;
46463;SDS011;32161;48.148;-1.554;2023-05-31T04:33:37;19.52;;;12.10;;
46463;SDS011;32161;48.148;-1.554;2023-05-31T04:36:07;17.00;;;13.10;;
46463;SDS011;32161;48.148;-1.554;2023-05-31T04:38:36;21.27;;;12.27;;
46463;SDS011;32161;48.148;-1.554;2023-05-31T04:41:04;20.92;;;12.95;;
46463;SDS011;32161;48.148;-1.554;2023-05-31T04:43:32;20.15;;;13.27;;
46463;SDS011;32161;48.148;-1.554;2023-05-31T04:45:59;24.00;;;13.68;;
46463;SDS011;32161;48.148;-1.554;2023-05-31T04:48:27;19.15;;;13.60;;
46463;SDS011;32161;48.148;-1.554;2023-05-31T04:50:54;19.42;;;13.45;;
46463;SDS011;32161;48.148;-1.554;2023-05-31T04:53:24;22.23;;;14.15;;
46463;SDS011;32161;48.148;-1.554;2023-05-31T04:55:53;19.35;;;13.10;;
46463;SDS011;32161;48.148;-1.554;2023-05-31T04:58:20;21.00;;;14.07;;
46463;SDS011;32161;48.148;-1.554;2023-05-31T05:00:48;20.77;;;14.50;;
46463;SDS011;32161;48.148;-1.554;2023-05-31T05:03:16;21.35;;;14.68;;
46463;SDS011;32161;48.148;-1.554;2023-05-31T05:05:43;20.65;;;13.85;;
46463;SDS011;32161;48.148;-1.554;2023-05-31T05:08:11;21.27;;;15.00;;
46463;SDS011;32161;48.148;-1.554;2023-05-31T05:10:39;20.02;;;14.40;;
46463;SDS011;32161;48.148;-1.554;2023-05-31T05:13:08;24.63;;;14.27;;
46463;SDS011;32161;48.148;-1.554;2023-05-31T05:15:35;18.88;;;14.90;;
46463;SDS011;32161;48.148;-1.554;2023-05-31T05:18:03;22.13;;;15.65;;
46463;SDS011;32161;48.148;-1.554;2023-05-31T05:20:31;23.95;;;14.63;;
46463;SDS011;32161;48.148;-1.554;2023-05-31T05:22:58;23.13;;;14.38;;
46463;SDS011;32161;48.148;-1.554;2023-05-31T05:25:32;18.77;;;14.85;;
46463;SDS011;32161;48.148;-1.554;2023-05-31T05:27:59;20.63;;;14.13;;
46463;SDS011;32161;48.148;-1.554;2023-05-31T05:30:28;22.63;;;14.93;;
46463;SDS011;32161;48.148;-1.554;2023-05-31T05:32:56;21.33;;;15.48;;
46463;SDS011;32161;48.148;-1.554;2023-05-31T05:35:23;20.27;;;14.63;;
46463;SDS011;32161;48.148;-1.554;2023-05-31T05:37:51;18.58;;;14.63;;
46463;SDS011;32161;48.148;-1.554;2023-05-31T05:40:19;22.70;;;16.17;;
46463;SDS011;32161;48.148;-1.554;2023-05-31T05:42:47;25.63;;;15.48;;
46463;SDS011;32161;48.148;-1.554;2023-05-31T05:45:15;22.65;;;15.40;;
46463;SDS011;32161;48.148;-1.554;2023-05-31T05:47:44;28.48;;;15.85;;
46463;SDS011;32161;48.148;-1.554;2023-05-31T05:50:14;20.85;;;15.18;;
46463;SDS011;32161;48.148;-1.554;2023-05-31T05:52:41;27.67;;;15.05;;
46463;SDS011;32161;48.148;-1.554;2023-05-31T05:55:09;21.90;;;15.20;;
46463;SDS011;32161;48.148;-1.554;2023-05-31T05:57:37;22.42;;;14.80;;
46463;SDS011;32161;48.148;-1.554;2023-05-31T06:00:05;19.67;;;13.63;;
46463;SDS011;32161;48.148;-1.554;2023-05-31T06:02:36;23.00;;;16.45;;
46463;SDS011;32161;48.148;-1.554;2023-05-31T06:05:05;19.23;;;15.43;;
46463;SDS011;32161;48.148;-1.554;2023-05-31T06:07:34;19.57;;;14.80;;
46463;SDS011;32161;48.148;-1.554;2023-05-31T06:10:02;19.80;;;15.02;;
46463;SDS011;32161;48.148;-1.554;2023-05-31T06:12:30;16.92;;;14.23;;
46463;SDS011;32161;48.148;-1.554;2023-05-31T06:14:57;21.33;;;14.77;;
46463;SDS011;32161;48.148;-1.554;2023-05-31T06:17:25;26.00;;;15.68;;
46463;SDS011;32161;48.148;-1.554;2023-05-31T06:19:53;23.20;;;15.85;;
46463;SDS011;32161;48.148;-1.554;2023-05-31T06:22:21;21.80;;;15.02;;
46463;SDS011;32161;48.148;-1.554;2023-05-31T06:24:49;19.05;;;14.80;;
46463;SDS011;32161;48.148;-1.554;2023-05-31T06:27:16;22.83;;;15.35;;
46463;SDS011;32161;48.148;-1.554;2023-05-31T06:29:44;18.83;;;14.80;;
46463;SDS011;32161;48.148;-1.554;2023-05-31T06:32:11;18.65;;;13.40;;
46463;SDS011;32161;48.148;-1.554;2023-05-31T06:34:39;19.48;;;13.63;;
46463;SDS011;32161;48.148;-1.554;2023-05-31T06:37:07;22.20;;;13.95;;
46463;SDS011;32161;48.148;-1.554;2023-05-31T06:39:36;18.02;;;13.82;;
46463;SDS011;32161;48.148;-1.554;2023-05-31T06:42:03;19.17;;;14.25;;
46463;SDS011;32161;48.148;-1.554;2023-05-31T06:44:31;21.38;;;14.55;;
46463;SDS011;32161;48.148;-1.554;2023-05-31T06:46:59;22.45;;;14.82;;
46463;SDS011;32161;48.148;-1.554;2023-05-31T06:49:27;16.88;;;13.90;;
46463;SDS011;32161;48.148;-1.554;2023-05-31T06:51:55;22.17;;;14.18;;
46463;SDS011;32161;48.148;-1.554;2023-05-31T06:54:23;17.05;;;14.00;;
46463;SDS011;32161;48.148;-1.554;2023-05-31T06:56:54;20.27;;;13.88;;
46463;SDS011;32161;48.148;-1.554;2023-05-31T06:59:21;20.27;;;14.07;;
46463;SDS011;32161;48.148;-1.554;2023-05-31T07:01:49;15.07;;;13.23;;
46463;SDS011;32161;48.148;-1.554;2023-05-31T07:04:17;17.77;;;14.52;;
46463;SDS011;32161;48.148;-1.554;2023-05-31T07:06:45;16.55;;;13.35;;
46463;SDS011;32161;48.148;-1.554;2023-05-31T07:09:12;17.80;;;13.60;;
46463;SDS011;32161;48.148;-1.554;2023-05-31T07:11:40;17.20;;;13.40;;
46463;SDS011;32161;48.148;-1.554;2023-05-31T07:14:10;18.02;;;12.88;;
46463;SDS011;32161;48.148;-1.554;2023-05-31T07:16:38;16.38;;;12.50;;
46463;SDS011;32161;48.148;-1.554;2023-05-31T07:19:05;19.10;;;12.75;;
46463;SDS011;32161;48.148;-1.554;2023-05-31T07:21:33;19.15;;;13.52;;
46463;SDS011;32161;48.148;-1.554;2023-05-31T07:24:01;18.30;;;13.13;;
46463;SDS011;32161;48.148;-1.554;2023-05-31T07:26:29;13.35;;;11.82;;
46463;SDS011;32161;48.148;-1.554;2023-05-31T07:28:56;15.30;;;11.68;;
46463;SDS011;32161;48.148;-1.554;2023-05-31T07:31:25;18.42;;;12.20;;
46463;SDS011;32161;48.148;-1.554;2023-05-31T07:33:53;16.75;;;12.13;;
46463;SDS011;32161;48.148;-1.554;2023-05-31T07:36:21;13.25;;;11.15;;
46463;SDS011;32161;48.148;-1.554;2023-05-31T07:38:50;16.02;;;11.70;;
46463;SDS011;32161;48.148;-1.554;2023-05-31T07:41:18;18.90;;;11.90;;
46463;SDS011;32161;48.148;-1.554;2023-05-31T07:43:45;15.88;;;12.48;;
46463;SDS011;32161;48.148;-1.554;2023-05-31T07:46:13;16.13;;;11.55;;
46463;SDS011;32161;48.148;-1.554;2023-05-31T07:48:42;15.15;;;10.93;;
46463;SDS011;32161;48.148;-1.554;2023-05-31T07:51:10;21.15;;;11.88;;
46463;SDS011;32161;48.148;-1.554;2023-05-31T07:53:38;18.92;;;12.18;;
46463;SDS011;32161;48.148;-1.554;2023-05-31T07:56:06;15.07;;;10.80;;
46463;SDS011;32161;48.148;-1.554;2023-05-31T07:58:34;15.73;;;12.02;;
46463;SDS011;32161;48.148;-1.554;2023-05-31T08:01:01;17.45;;;11.70;;
46463;SDS011;32161;48.148;-1.554;2023-05-31T08:03:29;14.02;;;10.82;;
46463;SDS011;32161;48.148;-1.554;2023-05-31T08:05:58;14.75;;;10.95;;
46463;SDS011;32161;48.148;-1.554;2023-05-31T08:08:26;20.23;;;11.02;;
46463;SDS011;32161;48.148;-1.554;2023-05-31T08:10:54;15.90;;;11.50;;
46463;SDS011;32161;48.148;-1.554;2023-05-31T08:13:22;14.80;;;10.82;;
46463;SDS011;32161;48.148;-1.554;2023-05-31T08:15:50;14.32;;;10.55;;
46463;SDS011;32161;48.148;-1.554;2023-05-31T08:18:18;16.58;;;10.23;;
46463;SDS011;32161;48.148;-1.554;2023-05-31T08:20:46;11.82;;;9.43;;
46463;SDS011;32161;48.148;-1.554;2023-05-31T08:23:18;12.73;;;10.55;;
46463;SDS011;32161;48.148;-1.554;2023-05-31T08:25:46;15.73;;;10.88;;
46463;SDS011;32161;48.148;-1.554;2023-05-31T08:28:16;12.63;;;10.45;;
46463;SDS011;32161;48.148;-1.554;2023-05-31T08:30:43;15.90;;;11.80;;
46463;SDS011;32161;48.148;-1.554;2023-05-31T08:33:11;17.77;;;10.68;;
46463;SDS011;32161;48.148;-1.554;2023-05-31T08:35:38;14.88;;;10.20;;
46463;SDS011;32161;48.148;-1.554;2023-05-31T08:38:06;14.43;;;10.02;;
46463;SDS011;32161;48.148;-1.554;2023-05-31T08:40:35;12.30;;;9.68;;
46463;SDS011;32161;48.148;-1.554;2023-05-31T08:43:05;10.50;;;9.32;;
46463;SDS011;32161;48.148;-1.554;2023-05-31T08:45:40;14.55;;;10.75;;
46463;SDS011;32161;48.148;-1.554;2023-05-31T08:48:10;14.70;;;11.02;;
46463;SDS011;32161;48.148;-1.554;2023-05-31T08:50:47;13.50;;;8.98;;
46463;SDS011;32161;48.148;-1.554;2023-05-31T08:55:47;14.20;;;10.50;;
46463;SDS011;32161;48.148;-1.554;2023-05-31T08:58:15;10.68;;;9.52;;
46463;SDS011;32161;48.148;-1.554;2023-05-31T09:00:44;10.65;;;9.25;;
46463;SDS011;32161;48.148;-1.554;2023-05-31T09:03:11;11.15;;;8.98;;
46463;SDS011;32161;48.148;-1.554;2023-05-31T09:05:39;14.50;;;9.65;;
46463;SDS011;32161;48.148;-1.554;2023-05-31T09:08:07;12.82;;;8.20;;
46463;SDS011;32161;48.148;-1.554;2023-05-31T09:10:35;15.20;;;9.60;;
46463;SDS011;32161;48.148;-1.554;2023-05-31T09:13:04;11.70;;;8.88;;
46463;SDS011;32161;48.148;-1.554;2023-05-31T09:15:35;12.25;;;8.90;;
46463;SDS011;32161;48.148;-1.554;2023-05-31T09:18:12;13.43;;;9.90;;
46463;SDS011;32161;48.148;-1.554;2023-05-31T09:20:41;10.15;;;9.05;;
46463;SDS011;32161;48.148;-1.554;2023-05-31T09:23:09;13.77;;;9.68;;
46463;SDS011;32161;48.148;-1.554;2023-05-31T09:25:46;11.40;;;10.20;;
46463;SDS011;32161;48.148;-1.554;2023-05-31T09:28:17;12.30;;;9.27;;
46463;SDS011;32161;48.148;-1.554;2023-05-31T09:30:59;15.20;;;9.82;;
46463;SDS011;32161;48.148;-1.554;2023-05-31T09:33:39;11.27;;;9.05;;
46463;SDS011;32161;48.148;-1.554;2023-05-31T09:36:08;11.95;;;9.27;;
46463;SDS011;32161;48.148;-1.554;2023-05-31T09:38:37;11.60;;;8.77;;
46463;SDS011;32161;48.148;-1.554;2023-05-31T09:41:14;10.48;;;8.60;;
46463;SDS011;32161;48.148;-1.554;2023-05-31T09:43:46;11.57;;;8.52;;
46463;SDS011;32161;48.148;-1.554;2023-05-31T09:46:15;14.20;;;9.43;;
46463;SDS011;32161;48.148;-1.554;2023-05-31T09:48:44;11.40;;;8.00;;
46463;SDS011;32161;48.148;-1.554;2023-05-31T09:51:22;10.30;;;7.72;;
46463;SDS011;32161;48.148;-1.554;2023-05-31T09:53:50;11.50;;;8.35;;
46463;SDS011;32161;48.148;-1.554;2023-05-31T09:56:21;18.02;;;8.75;;
46463;SDS011;32161;48.148;-1.554;2023-05-31T09:58:51;10.90;;;8.32;;
46463;SDS011;32161;48.148;-1.554;2023-05-31T10:01:22;10.52;;;7.65;;
46463;SDS011;32161;48.148;-1.554;2023-05-31T10:03:50;11.52;;;8.25;;
46463;SDS011;32161;48.148;-1.554;2023-05-31T10:06:18;14.27;;;9.35;;
46463;SDS011;32161;48.148;-1.554;2023-05-31T10:08:46;8.95;;;6.88;;
46463;SDS011;32161;48.148;-1.554;2023-05-31T10:11:16;11.43;;;7.47;;
46463;SDS011;32161;48.148;-1.554;2023-05-31T10:13:55;9.30;;;6.10;;
46463;SDS011;32161;48.148;-1.554;2023-05-31T10:16:28;9.13;;;8.15;;
46463;SDS011;32161;48.148;-1.554;2023-05-31T10:19:02;7.55;;;6.68;;
46463;SDS011;32161;48.148;-1.554;2023-05-31T10:21:36;10.20;;;7.20;;
46463;SDS011;32161;48.148;-1.554;2023-05-31T10:24:09;9.35;;;7.45;;
46463;SDS011;32161;48.148;-1.554;2023-05-31T10:26:44;9.27;;;6.43;;
46463;SDS011;32161;48.148;-1.554;2023-05-31T10:29:25;11.95;;;6.65;;
46463;SDS011;32161;48.148;-1.554;2023-05-31T10:32:01;8.40;;;6.80;;
46463;SDS011;32161;48.148;-1.554;2023-05-31T10:34:39;7.13;;;6.43;;
46463;SDS011;32161;48.148;-1.554;2023-05-31T10:37:07;8.48;;;6.93;;
46463;SDS011;32161;48.148;-1.554;2023-05-31T10:39:38;9.95;;;6.47;;
46463;SDS011;32161;48.148;-1.554;2023-05-31T10:42:14;13.63;;;6.88;;
46463;SDS011;32161;48.148;-1.554;2023-05-31T10:44:52;8.98;;;6.05;;
46463;SDS011;32161;48.148;-1.554;2023-05-31T10:47:26;11.43;;;5.85;;
46463;SDS011;32161;48.148;-1.554;2023-05-31T10:50:10;10.82;;;6.55;;
46463;SDS011;32161;48.148;-1.554;2023-05-31T10:52:47;8.35;;;4.88;;
46463;SDS011;32161;48.148;-1.554;2023-05-31T10:55:16;12.18;;;7.07;;
46463;SDS011;32161;48.148;-1.554;2023-05-31T10:57:49;10.55;;;5.97;;
46463;SDS011;32161;48.148;-1.554;2023-05-31T11:00:20;11.55;;;5.32;;
46463;SDS011;32161;48.148;-1.554;2023-05-31T11:02:49;10.07;;;6.07;;
46463;SDS011;32161;48.148;-1.554;2023-05-31T11:05:20;12.45;;;6.53;;
46463;SDS011;32161;48.148;-1.554;2023-05-31T11:07:50;10.45;;;5.90;;
46463;SDS011;32161;48.148;-1.554;2023-05-31T11:10:25;7.32;;;5.82;;
46463;SDS011;32161;48.148;-1.554;2023-05-31T11:12:55;6.13;;;5.53;;
46463;SDS011;32161;48.148;-1.554;2023-05-31T11:15:37;13.67;;;6.33;;
46463;SDS011;32161;48.148;-1.554;2023-05-31T11:18:06;9.77;;;6.35;;
46463;SDS011;32161;48.148;-1.554;2023-05-31T11:20:35;9.95;;;5.20;;
46463;SDS011;32161;48.148;-1.554;2023-05-31T11:34:27;8.70;;;4.63;;
46463;SDS011;32161;48.148;-1.554;2023-05-31T11:36:59;11.40;;;5.05;;
46463;SDS011;32161;48.148;-1.554;2023-05-31T11:39:28;7.43;;;4.55;;
46463;SDS011;32161;48.148;-1.554;2023-05-31T11:41:56;6.57;;;5.22;;
46463;SDS011;32161;48.148;-1.554;2023-05-31T11:44:28;7.75;;;5.15;;
46463;SDS011;32161;48.148;-1.554;2023-05-31T11:47:03;11.85;;;4.95;;
46463;SDS011;32161;48.148;-1.554;2023-05-31T11:49:34;6.53;;;5.15;;
46463;SDS011;32161;48.148;-1.554;2023-05-31T11:52:02;9.27;;;4.45;;
46463;SDS011;32161;48.148;-1.554;2023-05-31T11:54:31;9.65;;;4.43;;
46463;SDS011;32161;48.148;-1.554;2023-05-31T11:57:01;8.40;;;5.25;;
46463;SDS011;32161;48.148;-1.554;2023-05-31T11:59:32;7.05;;;5.15;;
46463;SDS011;32161;48.148;-1.554;2023-05-31T12:02:03;8.95;;;4.30;;
46463;SDS011;32161;48.148;-1.554;2023-05-31T12:04:34;8.00;;;4.88;;
46463;SDS011;32161;48.148;-1.554;2023-05-31T12:09:32;6.10;;;4.93;;
46463;SDS011;32161;48.148;-1.554;2023-05-31T12:12:00;9.38;;;4.55;;
46463;SDS011;32161;48.148;-1.554;2023-05-31T12:14:30;10.00;;;5.00;;
46463;SDS011;32161;48.148;-1.554;2023-05-31T12:17:00;7.35;;;4.13;;
46463;SDS011;32161;48.148;-1.554;2023-05-31T12:19:30;7.00;;;4.40;;
46463;SDS011;32161;48.148;-1.554;2023-05-31T12:21:58;6.10;;;4.55;;
46463;SDS011;32161;48.148;-1.554;2023-05-31T12:24:27;10.13;;;4.07;;
46463;SDS011;32161;48.148;-1.554;2023-05-31T12:26:55;7.55;;;3.90;;
46463;SDS011;32161;48.148;-1.554;2023-05-31T12:29:25;5.50;;;4.30;;
46463;SDS011;32161;48.148;-1.554;2023-05-31T12:32:04;7.80;;;3.88;;
46463;SDS011;32161;48.148;-1.554;2023-05-31T12:34:33;6.82;;;4.10;;
46463;SDS011;32161;48.148;-1.554;2023-05-31T12:37:04;6.55;;;3.80;;
46463;SDS011;32161;48.148;-1.554;2023-05-31T12:39:33;6.60;;;3.88;;
46463;SDS011;32161;48.148;-1.554;2023-05-31T12:42:02;4.57;;;3.55;;
46463;SDS011;32161;48.148;-1.554;2023-05-31T12:44:31;4.72;;;3.90;;
46463;SDS011;32161;48.148;-1.554;2023-05-31T12:47:01;7.72;;;3.42;;
46463;SDS011;32161;48.148;-1.554;2023-05-31T12:49:34;6.57;;;3.35;;
46463;SDS011;32161;48.148;-1.554;2023-05-31T12:52:04;5.40;;;3.85;;
46463;SDS011;32161;48.148;-1.554;2023-05-31T12:54:33;12.97;;;3.00;;
46463;SDS011;32161;48.148;-1.554;2023-05-31T12:57:03;3.72;;;2.22;;
46463;SDS011;32161;48.148;-1.554;2023-05-31T13:02:04;3.05;;;2.03;;
46463;SDS011;32161;48.148;-1.554;2023-05-31T13:04:32;7.35;;;2.97;;
46463;SDS011;32161;48.148;-1.554;2023-05-31T13:06:59;5.78;;;2.90;;
46463;SDS011;32161;48.148;-1.554;2023-05-31T13:09:27;6.93;;;3.10;;
46463;SDS011;32161;48.148;-1.554;2023-05-31T13:11:57;8.10;;;3.53;;
46463;SDS011;32161;48.148;-1.554;2023-05-31T13:14:24;4.15;;;3.03;;
46463;SDS011;32161;48.148;-1.554;2023-05-31T13:16:52;7.70;;;3.15;;
46463;SDS011;32161;48.148;-1.554;2023-05-31T13:19:21;9.70;;;3.47;;
46463;SDS011;32161;48.148;-1.554;2023-05-31T13:21:49;8.70;;;3.95;;
46463;SDS011;32161;48.148;-1.554;2023-05-31T13:24:17;7.10;;;3.70;;
46463;SDS011;32161;48.148;-1.554;2023-05-31T13:26:44;7.22;;;3.90;;
46463;SDS011;32161;48.148;-1.554;2023-05-31T13:29:12;4.30;;;3.65;;
46463;SDS011;32161;48.148;-1.554;2023-05-31T13:31:41;9.80;;;4.40;;
46463;SDS011;32161;48.148;-1.554;2023-05-31T13:34:09;5.93;;;3.42;;
46463;SDS011;32161;48.148;-1.554;2023-05-31T13:36:38;5.93;;;2.95;;
46463;SDS011;32161;48.148;-1.554;2023-05-31T13:39:05;6.15;;;2.95;;
46463;SDS011;32161;48.148;-1.554;2023-05-31T13:41:33;4.80;;;2.70;;
46463;SDS011;32161;48.148;-1.554;2023-05-31T13:44:00;6.57;;;3.08;;
46463;SDS011;32161;48.148;-1.554;2023-05-31T13:46:28;7.97;;;3.78;;
46463;SDS011;32161;48.148;-1.554;2023-05-31T13:48:56;3.97;;;2.85;;
46463;SDS011;32161;48.148;-1.554;2023-05-31T13:51:23;6.57;;;2.80;;
46463;SDS011;32161;48.148;-1.554;2023-05-31T13:53:52;4.75;;;2.67;;
46463;SDS011;32161;48.148;-1.554;2023-05-31T13:56:20;8.15;;;2.47;;
46463;SDS011;32161;48.148;-1.554;2023-05-31T13:58:47;5.43;;;2.38;;
46463;SDS011;32161;48.148;-1.554;2023-05-31T14:01:15;4.38;;;2.30;;
46463;SDS011;32161;48.148;-1.554;2023-05-31T14:03:42;6.03;;;2.72;;
46463;SDS011;32161;48.148;-1.554;2023-05-31T14:06:11;4.07;;;2.78;;
46463;SDS011;32161;48.148;-1.554;2023-05-31T14:08:39;6.35;;;2.60;;
46463;SDS011;32161;48.148;-1.554;2023-05-31T14:11:10;6.47;;;2.97;;
46463;SDS011;32161;48.148;-1.554;2023-05-31T14:13:39;4.23;;;2.43;;
46463;SDS011;32161;48.148;-1.554;2023-05-31T14:16:06;2.75;;;2.55;;
46463;SDS011;32161;48.148;-1.554;2023-05-31T14:18:34;5.18;;;2.50;;
46463;SDS011;32161;48.148;-1.554;2023-05-31T14:21:02;8.02;;;2.83;;
46463;SDS011;32161;48.148;-1.554;2023-05-31T14:23:30;9.23;;;3.42;;
46463;SDS011;32161;48.148;-1.554;2023-05-31T14:25:58;4.88;;;2.63;;
46463;SDS011;32161;48.148;-1.554;2023-05-31T14:28:26;3.78;;;2.65;;
46463;SDS011;32161;48.148;-1.554;2023-05-31T14:30:54;3.45;;;2.38;;
46463;SDS011;32161;48.148;-1.554;2023-05-31T14:33:22;6.63;;;2.78;;
46463;SDS011;32161;48.148;-1.554;2023-05-31T14:35:52;4.50;;;2.55;;
46463;SDS011;32161;48.148;-1.554;2023-05-31T14:38:20;5.43;;;2.00;;
46463;SDS011;32161;48.148;-1.554;2023-05-31T14:40:48;5.13;;;1.70;;
46463;SDS011;32161;48.148;-1.554;2023-05-31T14:43:16;2.58;;;2.35;;
46463;SDS011;32161;48.148;-1.554;2023-05-31T14:45:45;3.67;;;2.50;;
46463;SDS011;32161;48.148;-1.554;2023-05-31T14:48:13;4.38;;;2.38;;
46463;SDS011;32161;48.148;-1.554;2023-05-31T14:50:41;6.10;;;2.38;;
46463;SDS011;32161;48.148;-1.554;2023-05-31T14:53:09;5.20;;;2.42;;
46463;SDS011;32161;48.148;-1.554;2023-05-31T14:55:39;4.93;;;2.65;;
46463;SDS011;32161;48.148;-1.554;2023-05-31T14:58:07;4.30;;;2.97;;